UHHH/KHV METAR and TAF weather

Enter ICAO airport designator
Station Type Date Time Source
UHHH METAR 2024/04/17 18:30 UTC NOAA

UHHH 171830Z 03005MPS 9999 -SHRA BKN004 OVC020CB 05/04 Q1011 R88/290045 NOSIG RMK QBB130 OBST OBSC QFE752/1002


Station Type Date Time Source
UHHH Decoded METAR 2024/04/17 18:30 UTC NOAA

Habarovsk, Russia (UHHH) 48-31N 135-10E 76M
Apr 17, 2024 - 02:30 PM EDT / 2024.04.17 1830 UTC
Wind: from the NNE (030 degrees) at 11 MPH (10 KT):0
Visibility: greater than 7 mile(s):0
Sky conditions: overcast
Weather: light rain showers; Cumulonimbus clouds observed
Temperature: 41 F (5 C)
Dew Point: 39 F (4 C)
Relative Humidity: 93%
Pressure (altimeter): 29.85 in. Hg (1011 hPa)
ob: UHHH 171830Z 03005MPS 9999 -SHRA BKN004 OVC020CB 05/04 Q1011 R88/290045 NOSIG RMK QBB130 OBST OBSC QFE752/1002
cycle: 18

Station Type Date Time Source
UHHH TAF 2024/04/17 18:21 UTC NOAA